Time;durP1;ratioP1;P1;durP2;ratioP2;P2;SDS_P1;SDS_P2;PMS_P1;PMS_P2;Temp;Humidity;BMP_temperature;BMP_pressure;BME280_temperature;BME280_humidity;BME280_pressure;Samples;Min_cycle;Max_cycle;Signal;HPM_P1;HPM_P2
2022/12/15 00:40:08;;;;;;;15.00;7.57;;;;;;;-142.75;100.00;78186.75;4993730;28;20240;-68
2022/12/15 00:42:34;;;;;;;15.05;7.85;;;;;;;-142.75;100.00;78216.28;4996000;28;20890;-68
2022/12/15 00:45:00;;;;;;;14.43;7.82;;;;;;;-142.75;100.00;78228.09;4997042;28;20313;-68
2022/12/15 00:47:26;;;;;;;15.33;7.90;;;;;;;-142.75;100.00;78232.03;4993464;28;20559;-68
2022/12/15 01:20:17;;;;;;;16.20;8.10;;;;;;;-142.75;100.00;78279.28;4999639;28;20584;-68
2022/12/15 01:22:48;;;;;;;16.30;7.93;;;;;;;-142.75;100.00;78271.41;4986531;28;20636;-67
2022/12/15 01:25:15;;;;;;;16.17;7.17;;;;;;;-142.75;100.00;78283.22;4996165;28;20025;-68
2022/12/15 01:27:41;;;;;;;14.03;7.40;;;;;;;-142.75;100.00;78275.34;4989644;28;20538;-68
2022/12/15 01:30:09;;;;;;;15.18;7.07;;;;;;;-142.75;100.00;78287.16;5002793;28;20059;-68
2022/12/15 01:32:35;;;;;;;16.70;8.60;;;;;;;-142.75;100.00;78283.22;5001385;28;20029;-67
2022/12/15 01:35:01;;;;;;;16.70;7.80;;;;;;;-142.75;100.00;78291.09;4996334;28;20294;-68
2022/12/15 01:37:27;;;;;;;14.80;7.33;;;;;;;-142.75;100.00;78330.50;4991514;28;20592;-68
2022/12/15 01:42:36;;;;;;;14.73;7.13;;;;;;;-142.75;100.00;78352.16;4987657;28;20044;-68
2022/12/15 01:45:23;;;;;;;14.57;7.43;;;;;;;-142.75;100.00;78389.56;4995363;28;20021;-67
2022/12/15 01:47:56;;;;;;;14.80;7.40;;;;;;;-142.75;100.00;78338.38;4997539;28;20557;-67
2022/12/15 01:50:23;;;;;;;19.43;8.00;;;;;;;-142.75;100.00;78330.50;4971412;28;20639;-68
2022/12/15 01:52:50;;;;;;;13.83;7.77;;;;;;;-142.75;100.00;78310.81;4992537;28;20155;-68
2022/12/15 01:55:18;;;;;;;15.07;7.93;;;;;;;-142.75;100.00;78316.72;4997585;28;20039;-68
2022/12/15 01:57:45;;;;;;;15.50;7.23;;;;;;;-142.75;100.00;78310.81;4996215;28;20020;-68
2022/12/15 02:00:11;;;;;;;16.90;7.20;;;;;;;-142.75;100.00;78306.88;4994379;28;20020;-67
2022/12/15 02:02:38;;;;;;;15.00;7.30;;;;;;;-142.75;100.00;78310.81;4986158;28;20786;-67
2022/12/15 02:05:05;;;;;;;16.50;7.10;;;;;;;-142.75;100.00;78295.06;4991402;28;20731;-67
2022/12/15 02:07:30;;;;;;;13.70;6.80;;;;;;;-142.75;100.00;78281.25;4989494;28;20020;-67
2022/12/15 02:09:59;;;;;;;15.05;7.22;;;;;;;-142.75;100.00;78291.09;4990384;28;20391;-67
2022/12/15 02:12:40;;;;;;;12.43;6.53;;;;;;;-142.75;100.00;78297.00;4977882;28;20553;-67
2022/12/15 02:15:33;;;;;;;14.83;7.00;;;;;;;-142.75;100.00;78295.06;4993213;28;20025;-68
2022/12/15 02:18:26;;;;;;;13.70;6.53;;;;;;;-142.75;100.00;78308.84;4995895;28;20059;-67
2022/12/15 02:21:17;;;;;;;16.60;7.27;;;;;;;-142.75;100.00;78300.97;5000927;28;20110;-68
2022/12/15 02:24:05;;;;;;;19.67;7.37;;;;;;;-142.75;100.00;78299.00;4993911;28;20055;-68
2022/12/15 02:27:20;;;;;;;15.10;6.93;;;;;;;-142.75;100.00;78295.06;4998523;28;20056;-67
2022/12/15 02:30:04;;;;;;;10.93;6.13;;;;;;;-142.75;100.00;78291.09;4943196;28;20164;-67
2022/12/15 02:32:53;;;;;;;13.70;6.03;;;;;;;-142.75;100.00;78297.00;4994501;28;20558;-67
2022/12/15 02:35:30;;;;;;;9.83;6.00;;;;;;;-142.75;100.00;78299.00;5001612;28;20024;-67
2022/12/15 02:37:56;;;;;;;;;;;;;;;-142.75;100.00;78310.81;4994757;28;20549;-67
2022/12/15 02:40:21;;;;;;;12.23;6.10;;;;;;;-142.75;100.00;78306.88;4988974;28;19923;-68
2022/12/15 02:42:52;;;;;;;11.80;6.20;;;;;;;-142.75;100.00;78326.56;4987093;28;20440;-68
2022/12/15 02:45:30;;;;;;;15.70;6.63;;;;;;;-142.75;100.00;78320.66;5003406;28;20052;-68
2022/12/15 02:48:20;;;;;;;14.87;7.10;;;;;;;-142.75;100.00;78328.53;4994427;28;20595;-68
2022/12/15 02:51:01;;;;;;;13.13;6.87;;;;;;;-142.75;100.00;78334.44;5004345;28;20025;-68
2022/12/15 02:53:36;;;;;;;14.70;6.27;;;;;;;-142.75;100.00;78326.56;4989308;28;20039;-67
2022/12/15 02:56:07;;;;;;;8.87;4.97;;;;;;;-142.75;100.00;78326.56;4995059;28;20579;-68
2022/12/15 02:58:48;;;;;;;11.07;5.77;;;;;;;-142.75;100.00;78336.41;4993556;28;20028;-68
2022/12/15 03:01:36;;;;;;;13.63;6.60;;;;;;;-142.75;100.00;78352.16;4996068;28;20104;-68
2022/12/15 03:04:06;;;;;;;13.30;6.47;;;;;;;-142.75;100.00;78377.75;4987853;28;20039;-67
2022/12/15 03:06:32;;;;;;;11.77;5.93;;;;;;;-142.75;100.00;78375.78;5000002;28;20101;-70
2022/12/15 03:08:57;;;;;;;12.15;6.55;;;;;;;-142.75;100.00;78375.78;4992611;28;20029;-70
2022/12/15 03:11:23;;;;;;;12.40;6.30;;;;;;;-142.75;100.00;78367.91;4990024;28;20307;-71
2022/12/15 03:13:49;;;;;;;13.05;6.68;;;;;;;-142.75;100.00;78350.19;4991151;28;20039;-70
2022/12/15 03:16:14;;;;;;;14.10;6.63;;;;;;;-142.75;100.00;78342.31;4999730;28;20021;-70
2022/12/15 03:18:40;;;;;;;11.02;6.15;;;;;;;-142.75;100.00;78352.16;5002569;28;20059;-71
2022/12/15 03:21:05;;;;;;;18.60;7.18;;;;;;;-142.75;100.00;78354.13;4993758;28;20332;-70
2022/12/15 03:23:32;;;;;;;14.30;6.90;;;;;;;-142.75;100.00;78352.16;4990607;28;20021;-71
2022/12/15 03:25:58;;;;;;;12.60;6.60;;;;;;;-142.75;100.00;78328.53;5007330;28;20033;-65
2022/12/15 03:28:24;;;;;;;11.57;5.78;;;;;;;-142.75;100.00;78330.50;5004787;28;20336;-66
2022/12/15 03:30:49;;;;;;;12.60;6.25;;;;;;;-142.75;100.00;78338.38;5003990;28;20048;-70
2022/12/15 03:33:15;;;;;;;14.27;6.10;;;;;;;-142.75;100.00;78346.25;5005507;28;20127;-70
2022/12/15 03:35:41;;;;;;;11.95;6.72;;;;;;;-142.75;100.00;78348.22;5001889;28;20148;-69
2022/12/15 03:38:06;;;;;;;16.33;6.72;;;;;;;-142.75;100.00;78354.13;5001867;28;20248;-70
2022/12/15 03:40:32;;;;;;;11.10;5.55;;;;;;;-142.75;100.00;78356.09;4996406;28;20427;-70
2022/12/15 03:42:58;;;;;;;12.68;6.30;;;;;;;-142.75;100.00;78375.78;4990346;28;20353;-70
2022/12/15 03:45:26;;;;;;;9.73;5.18;;;;;;;-142.75;100.00;78377.75;4989688;28;20354;-70
2022/12/15 03:47:53;;;;;;;12.87;6.67;;;;;;;-142.75;100.00;78377.75;5002796;28;20616;-70
2022/12/15 03:50:21;;;;;;;10.87;5.97;;;;;;;-142.75;100.00;78350.19;5001959;28;20132;-71
2022/12/15 03:53:01;;;;;;;11.67;5.97;;;;;;;-142.75;100.00;78346.25;4991977;28;20025;-69
2022/12/15 03:55:30;;;;;;;17.00;6.77;;;;;;;-142.75;100.00;78342.31;4993699;28;20025;-70
2022/12/15 03:57:56;;;;;;;15.07;6.77;;;;;;;-142.75;100.00;78330.50;4996948;28;20089;-70
2022/12/15 04:00:23;;;;;;;11.03;5.93;;;;;;;-142.75;100.00;78338.38;4991361;28;20028;-70
2022/12/15 04:02:49;;;;;;;12.20;6.53;;;;;;;-142.75;100.00;78328.53;5002666;28;20040;-70
2022/12/15 04:05:29;;;;;;;11.80;6.10;;;;;;;-142.75;100.00;78342.31;4995400;28;20106;-69
2022/12/15 04:07:59;;;;;;;12.07;6.53;;;;;;;-142.75;100.00;78342.31;4997827;28;20642;-71
2022/12/15 04:10:26;;;;;;;13.60;6.70;;;;;;;-142.75;100.00;78344.28;5006010;28;20132;-66
2022/12/15 04:13:03;;;;;;;18.53;6.80;;;;;;;-142.75;100.00;78346.25;4994863;28;20056;-65
2022/12/15 04:15:29;;;;;;;16.57;7.63;;;;;;;-142.75;100.00;78354.13;4997240;28;20024;-66
2022/12/15 04:17:55;;;;;;;11.25;6.25;;;;;;;-142.75;100.00;78336.41;5011547;28;20309;-66
2022/12/15 04:20:21;;;;;;;17.05;8.25;;;;;;;-142.75;100.00;78326.56;5002673;28;20337;-66
2022/12/15 04:22:48;;;;;;;18.13;7.47;;;;;;;-142.75;100.00;78322.63;4992065;28;20612;-65
2022/12/15 05:33:58;;;;;;;16.23;7.37;;;;;;;-142.75;100.00;78389.56;4986798;28;20063;-65
2022/12/15 05:36:23;;;;;;;14.85;8.32;;;;;;;-142.75;100.00;78401.38;4987163;28;20357;-66
2022/12/15 05:38:52;;;;;;;13.55;7.30;;;;;;;-142.75;100.00;78434.88;5005540;28;20106;-65
2022/12/15 05:41:19;;;;;;;16.97;8.43;;;;;;;-142.75;100.00;78436.84;4989930;28;20102;-66
2022/12/15 05:43:45;;;;;;;12.53;7.53;;;;;;;-142.75;100.00;78452.59;4989636;28;20028;-65
2022/12/15 05:46:11;;;;;;;;;;;;;;;-142.75;100.00;78468.34;4993992;28;20043;-65
2022/12/15 05:48:37;;;;;;;13.57;6.47;;;;;;;-142.75;100.00;78468.34;4993259;28;20166;-65
2022/12/15 05:51:07;;;;;;;12.80;7.10;;;;;;;-142.75;100.00;78464.41;5007361;28;20020;-64
2022/12/15 05:53:34;;;;;;;12.27;7.10;;;;;;;-142.75;100.00;78470.31;4994564;28;20032;-65
2022/12/15 05:56:03;;;;;;;19.83;8.60;;;;;;;-142.75;100.00;78466.38;5002144;28;20029;-65
2022/12/15 05:58:28;;;;;;;15.80;7.90;;;;;;;-142.75;100.00;78464.41;4992580;28;20055;-65
2022/12/15 06:00:54;;;;;;;13.18;6.78;;;;;;;-142.75;100.00;78478.19;4989221;28;20345;-66
2022/12/15 06:03:19;;;;;;;17.75;8.30;;;;;;;-142.75;100.00;78480.16;4998661;28;20246;-65
2022/12/15 06:05:45;;;;;;;14.43;7.28;;;;;;;-142.75;100.00;78491.97;4988402;28;20135;-65
2022/12/15 06:08:11;;;;;;;13.48;7.57;;;;;;;-142.75;100.00;78495.94;4997598;28;20447;-66
2022/12/15 06:10:37;;;;;;;14.13;7.80;;;;;;;-142.75;100.00;78488.03;4989974;28;20047;-65
2022/12/15 06:13:03;;;;;;;19.35;8.93;;;;;;;-142.75;100.00;78482.13;4995143;28;20029;-66
2022/12/15 06:15:28;;;;;;;12.98;6.53;;;;;;;-142.75;100.00;78470.31;4998787;28;20385;-65
2022/12/15 06:17:54;;;;;;;14.63;7.13;;;;;;;-142.75;100.00;78476.22;4986441;28;20287;-66
2022/12/15 06:20:20;;;;;;;18.10;8.48;;;;;;;-142.75;100.00;78482.13;5004927;28;20560;-65
2022/12/15 06:22:45;;;;;;;14.13;8.15;;;;;;;-142.75;100.00;78472.28;4994939;28;20060;-65
2022/12/15 06:25:11;;;;;;;18.98;8.70;;;;;;;-142.75;100.00;78460.47;4987873;28;20318;-65
2022/12/15 06:27:36;;;;;;;13.55;7.40;;;;;;;-142.75;100.00;78452.59;4996026;28;20334;-65
2022/12/15 06:30:03;;;;;;;16.67;8.10;;;;;;;-142.75;100.00;78444.72;5001099;28;20372;-65
2022/12/15 06:32:28;;;;;;;;;;;;;;;-142.75;100.00;78440.78;4986040;28;20055;-65
2022/12/15 06:34:53;;;;;;;16.27;7.73;;;;;;;-142.75;100.00;78428.97;4984609;28;20478;-65
2022/12/15 06:37:19;;;;;;;14.07;7.18;;;;;;;-142.75;100.00;78423.06;4982971;28;20202;-65
2022/12/15 06:39:44;;;;;;;15.13;7.35;;;;;;;-142.75;100.00;78423.06;4998257;28;20292;-65
2022/12/15 06:42:10;;;;;;;15.15;8.02;;;;;;;-142.75;100.00;78428.97;4997574;28;20167;-65
2022/12/15 06:44:36;;;;;;;16.02;8.15;;;;;;;-142.75;100.00;78425.03;4998889;28;20171;-65
2022/12/15 06:47:02;;;;;;;13.57;7.72;;;;;;;-142.75;100.00;78427.00;4998259;28;20016;-65
2022/12/15 06:49:28;;;;;;;16.53;8.30;;;;;;;-142.75;100.00;78452.59;4990879;28;20056;-65
2022/12/15 06:51:53;;;;;;;12.07;7.03;;;;;;;-142.75;100.00;78495.94;5003430;28;20364;-66
2022/12/15 06:54:19;;;;;;;13.98;7.35;;;;;;;-142.75;100.00;78523.50;5000419;28;20345;-65
2022/12/15 06:56:44;;;;;;;16.20;7.45;;;;;;;-142.75;100.00;78486.06;4996900;28;20194;-65
2022/12/15 06:59:11;;;;;;;13.45;6.85;;;;;;;-142.75;100.00;78478.19;4994675;28;20337;-65
2022/12/15 07:01:37;;;;;;;15.10;7.43;;;;;;;-142.75;100.00;78458.50;4999286;28;20028;-65
2022/12/15 07:04:04;;;;;;;;;;;;;;;-142.75;100.00;78452.59;5004691;28;20059;-65
2022/12/15 07:06:37;;;;;;;9.52;5.55;;;;;;;-142.75;100.00;78444.72;4990709;28;19970;-65
2022/12/15 07:09:06;;;;;;;15.87;7.37;;;;;;;-142.75;100.00;78450.63;4993865;28;20051;-65
2022/12/15 07:11:31;;;;;;;18.60;8.10;;;;;;;-142.75;100.00;78438.81;4993021;28;20025;-65
2022/12/15 07:13:57;;;;;;;15.80;7.57;;;;;;;-142.75;100.00;78436.84;4989495;28;20268;-65
2022/12/15 07:16:23;;;;;;;15.25;7.47;;;;;;;-142.75;100.00;78428.97;5002530;28;20302;-65
2022/12/15 07:18:49;;;;;;;;;;;;;;;-142.75;100.00;78425.03;5006082;28;20059;-65
2022/12/15 07:21:14;;;;;;;13.37;6.93;;;;;;;-142.75;100.00;78417.16;5009262;28;20232;-65
2022/12/15 07:23:40;;;;;;;15.30;7.32;;;;;;;-142.75;100.00;78417.16;4993563;28;20285;-68
2022/12/15 07:26:08;;;;;;;12.27;6.43;;;;;;;-142.75;100.00;78405.34;4987780;28;20337;-68
2022/12/15 07:28:34;;;;;;;15.67;7.27;;;;;;;-142.75;100.00;78399.44;4995449;28;20063;-68
2022/12/15 07:31:06;;;;;;;19.93;9.70;;;;;;;-142.75;100.00;78411.25;5003979;28;20024;-68
2022/12/15 07:33:32;;;;;;;16.43;8.70;;;;;;;-142.75;100.00;78454.56;4989696;28;20052;-67
2022/12/15 07:35:59;;;;;;;20.47;10.17;;;;;;;-142.75;100.00;78472.28;4989286;28;20021;-68
2022/12/15 07:38:25;;;;;;;18.13;8.87;;;;;;;-142.75;100.00;78468.34;4997935;28;20113;-68
2022/12/15 07:40:51;;;;;;;20.33;9.47;;;;;;;-142.75;100.00;78488.03;4996185;28;20040;-68
2022/12/15 07:43:17;;;;;;;18.02;9.45;;;;;;;-142.75;100.00;78478.19;4995988;28;20356;-68
2022/12/15 07:45:42;;;;;;;21.50;9.90;;;;;;;-142.75;100.00;78472.28;4990632;28;20278;-68
2022/12/15 07:48:08;;;;;;;18.05;9.15;;;;;;;-142.75;100.00;78468.34;5000384;28;20328;-67
2022/12/15 07:50:38;;;;;;;15.43;8.27;;;;;;;-142.75;100.00;78466.38;4993122;28;20205;-68
2022/12/15 07:53:04;;;;;;;12.70;7.40;;;;;;;-142.75;100.00;78460.47;4995436;28;20056;-68
2022/12/15 07:55:29;;;;;;;17.35;8.65;;;;;;;-142.75;100.00;78448.66;5003749;28;20194;-67
2022/12/15 07:57:55;;;;;;;19.98;9.25;;;;;;;-142.75;100.00;78442.75;4995360;28;20348;-67
2022/12/15 08:00:20;;;;;;;18.25;9.98;;;;;;;-142.75;100.00;78448.66;4997040;28;20325;-67
2022/12/15 08:02:46;;;;;;;22.95;10.25;;;;;;;-142.75;100.00;78452.59;4997049;28;20274;-68
2022/12/15 08:05:12;;;;;;;17.67;8.82;;;;;;;-142.75;100.00;78448.66;5002434;28;20418;-68
2022/12/15 08:07:37;;;;;;;20.55;10.02;;;;;;;-142.75;100.00;78440.78;4995691;28;20255;-68
2022/12/15 08:10:03;;;;;;;19.27;9.43;;;;;;;-142.75;100.00;78403.38;5002632;28;20337;-68
2022/12/15 08:12:30;;;;;;;17.40;9.65;;;;;;;-142.75;100.00;78379.72;5001132;28;20341;-67
2022/12/15 08:14:55;;;;;;;16.60;8.63;;;;;;;-142.75;100.00;78358.06;4989424;28;20106;-67
2022/12/15 08:17:21;;;;;;;22.52;9.20;;;;;;;-142.75;100.00;78314.75;4989029;28;20422;-67
2022/12/15 08:19:47;;;;;;;21.92;9.15;;;;;;;-142.75;100.00;78314.75;4997455;28;20326;-68
2022/12/15 08:22:14;;;;;;;25.52;11.07;;;;;;;-142.75;100.00;78293.06;4999504;28;20186;-67
2022/12/15 08:24:40;;;;;;;18.40;10.03;;;;;;;-142.75;100.00;78281.25;4993104;28;20021;-68
2022/12/15 08:27:05;;;;;;;17.95;9.35;;;;;;;-142.75;100.00;78228.09;5002351;28;20477;-67
2022/12/15 08:29:31;;;;;;;20.90;8.88;;;;;;;-142.75;100.00;78180.81;5000315;28;20368;-67
2022/12/15 08:31:56;;;;;;;17.58;9.25;;;;;;;-142.75;100.00;78139.47;4997917;28;20348;-67
2022/12/15 08:34:22;;;;;;;18.17;8.48;;;;;;;-142.75;100.00;78109.94;4996544;28;20340;-67
2022/12/15 08:36:48;;;;;;;14.30;7.60;;;;;;;-142.75;100.00;78048.88;4994715;28;20384;-66
2022/12/15 08:39:14;;;;;;;14.93;8.32;;;;;;;-142.75;100.00;77968.16;5001458;28;20343;-66
2022/12/15 08:41:40;;;;;;;22.33;8.90;;;;;;;-142.75;100.00;77966.19;4989966;28;20408;-66
2022/12/15 08:44:05;;;;;;;15.85;8.32;;;;;;;-142.75;100.00;77877.56;4993910;28;20024;-66
2022/12/15 08:46:35;;;;;;;17.25;8.00;;;;;;;-142.75;100.00;77790.94;4997256;28;20309;-66
2022/12/15 08:49:02;;;;;;;12.90;7.33;;;;;;;-142.75;100.00;77743.69;4980856;28;20060;-66
2022/12/15 08:51:28;;;;;;;13.13;7.70;;;;;;;-142.75;100.00;77725.97;4980727;28;20017;-66
2022/12/15 08:53:55;;;;;;;16.87;8.00;;;;;;;-142.75;100.00;77708.22;4988973;28;20562;-66
2022/12/15 08:56:22;;;;;;;16.10;8.27;;;;;;;-142.75;100.00;77649.16;5044235;28;20090;-63
2022/12/15 08:58:49;;;;;;;15.93;7.90;;;;;;;-142.75;100.00;77676.72;5044464;28;20377;-65
2022/12/15 09:01:20;;;;;;;16.27;8.37;;;;;;;-142.75;100.00;77680.66;5039703;28;20027;-64
2022/12/15 09:03:46;;;;;;;16.53;7.57;;;;;;;-142.75;100.00;77657.03;5043536;28;20028;-63
2022/12/15 09:06:15;;;;;;;17.55;8.13;;;;;;;-142.75;100.00;77657.03;5038957;28;20047;-65
2022/12/15 09:08:41;;;;;;;14.57;7.20;;;;;;;-142.75;100.00;77627.50;5035441;28;20033;-64
2022/12/15 09:11:06;;;;;;;12.77;7.65;;;;;;;-142.75;100.00;77588.13;5036264;28;20060;-67
2022/12/15 09:13:32;;;;;;;14.90;8.20;;;;;;;-142.75;100.00;77564.50;5043160;28;20055;-66
2022/12/15 09:16:06;;;;;;;30.33;17.58;;;;;;;-142.75;100.00;77529.06;5042224;28;20029;-64
2022/12/15 09:18:32;;;;;;;14.87;9.03;;;;;;;-142.75;100.00;77548.75;5042151;28;20033;-65
2022/12/15 09:21:02;;;;;;;15.17;9.00;;;;;;;-142.75;100.00;77594.03;5048182;28;20033;-64
2022/12/15 09:23:28;;;;;;;14.83;8.00;;;;;;;-142.75;100.00;77586.16;5043361;28;20467;-67
2022/12/15 09:26:00;;;;;;;19.08;8.85;;;;;;;-142.75;100.00;77542.84;5042481;28;20024;-66
2022/12/15 09:28:25;;;;;;;16.63;9.20;;;;;;;-142.75;100.00;77534.97;5043603;28;20094;-65
2022/12/15 09:30:50;;;;;;;18.80;9.40;;;;;;;-142.75;100.00;77501.50;5042955;28;20565;-67
2022/12/15 09:33:16;;;;;;;14.35;8.15;;;;;;;-142.75;100.00;77462.13;5043261;28;20132;-66
2022/12/15 09:35:49;;;;;;;17.38;8.98;;;;;;;-142.75;100.00;77428.63;5046942;28;20561;-67
2022/12/15 09:38:14;;;;;;;16.93;9.03;;;;;;;-142.75;100.00;77377.44;5042510;28;20037;-66
2022/12/15 09:40:39;;;;;;;19.77;8.83;;;;;;;-142.75;100.00;77420.75;5041921;28;20406;-66
2022/12/15 09:43:05;;;;;;;15.90;8.27;;;;;;;-142.75;100.00;77444.38;5042580;28;21009;-63
2022/12/15 09:45:42;;;;;;;17.85;9.80;;;;;;;-142.75;100.00;77570.41;5042936;28;20275;-67
2022/12/15 09:48:14;;;;;;;;;;;;;;;-142.75;100.00;77483.78;5042835;28;20025;-66
2022/12/15 09:50:44;;;;;;;21.87;9.83;;;;;;;-142.75;100.00;77468.03;5039975;28;19924;-66
2022/12/15 09:53:13;;;;;;;15.33;8.77;;;;;;;-142.75;100.00;77458.16;4999059;28;20021;-66
2022/12/15 09:55:38;;;;;;;16.77;9.53;;;;;;;-142.75;100.00;77503.47;5000744;28;20128;-67
2022/12/15 09:58:34;;;;;;;15.68;8.48;;;;;;;-142.75;100.00;77586.16;4998160;28;20190;-67
2022/12/15 10:01:37;;;;;;;16.60;9.87;;;;;;;-142.75;100.00;77574.34;4987688;28;20805;-66
2022/12/15 10:04:08;;;;;;;17.77;9.40;;;;;;;-142.75;100.00;77534.97;4993779;28;20021;-66
2022/12/15 10:06:44;;;;;;;18.93;10.23;;;;;;;-142.75;100.00;77554.66;5000885;28;20671;-66
2022/12/15 10:09:19;;;;;;;22.23;11.23;;;;;;;-142.75;100.00;77570.41;5000583;28;20028;-65
2022/12/15 10:11:54;;;;;;;16.63;9.70;;;;;;;-142.75;100.00;77523.16;4997508;28;20127;-65
2022/12/15 10:14:43;;;;;;;18.90;10.43;;;;;;;-142.75;100.00;77493.63;4995477;28;20534;-66
2022/12/15 10:17:45;;;;;;;18.00;9.97;;;;;;;-142.75;100.00;77471.97;4995940;28;20113;-65
2022/12/15 10:20:21;;;;;;;17.87;9.37;;;;;;;-142.75;100.00;77430.59;4988711;28;20545;-65
2022/12/15 10:22:47;;;;;;;20.17;9.97;;;;;;;-142.75;100.00;77436.50;4997415;28;20147;-66
2022/12/15 10:25:22;;;;;;;16.35;9.18;;;;;;;-142.75;100.00;77393.19;4996103;28;20135;-66
2022/12/15 10:28:26;;;;;;;21.73;10.27;;;;;;;-142.75;100.00;77375.47;4980767;28;20790;-65
2022/12/15 10:31:11;;;;;;;19.33;9.83;;;;;;;-142.75;100.00;77290.81;4991100;28;20553;-66
2022/12/15 10:33:41;;;;;;;18.47;10.20;;;;;;;-142.75;100.00;77300.66;4984681;28;20095;-66
2022/12/15 10:36:10;;;;;;;17.77;10.43;;;;;;;-142.75;100.00;77320.34;4998096;28;20021;-66
2022/12/15 10:38:42;;;;;;;20.45;9.68;;;;;;;-142.75;100.00;77342.00;4992069;28;20025;-66
2022/12/15 10:41:14;;;;;;;18.08;10.32;;;;;;;-142.75;100.00;77383.34;5003749;28;20047;-66
2022/12/15 10:43:42;;;;;;;20.88;9.88;;;;;;;-142.75;100.00;77440.44;4997667;28;20032;-66
2022/12/15 10:46:08;;;;;;;17.02;9.52;;;;;;;-142.75;100.00;77475.91;4989280;28;20128;-66
2022/12/15 10:48:34;;;;;;;19.33;9.27;;;;;;;-142.75;100.00;77497.56;5002557;28;20302;-66
2022/12/15 10:51:12;;;;;;;15.13;9.67;;;;;;;-142.75;100.00;77651.13;4991909;28;20159;-65
2022/12/15 10:53:56;;;;;;;22.57;10.00;;;;;;;-142.75;100.00;77676.72;4978751;28;20032;-65
2022/12/15 10:56:28;;;;;;;17.90;7.70;;;;;;;-142.75;100.00;77702.31;4971609;28;20033;-66
2022/12/15 10:58:57;;;;;;;11.83;6.43;;;;;;;-142.75;100.00;77708.22;4998896;28;20025;-66
2022/12/15 11:01:25;;;;;;;12.83;7.50;;;;;;;-142.75;100.00;77755.50;4999312;28;20055;-65
2022/12/15 11:03:51;;;;;;;11.83;6.87;;;;;;;-142.75;100.00;77773.22;4993400;28;20052;-66
2022/12/15 11:06:31;;;;;;;15.73;7.90;;;;;;;-142.75;100.00;77767.31;4984230;28;20321;-65
2022/12/15 11:09:08;;;;;;;16.97;8.23;;;;;;;-142.75;100.00;77779.13;4996261;28;20914;-66
2022/12/15 11:14:41;;;;;;;13.00;8.17;;;;;;;-142.75;100.00;77686.56;4995372;28;20470;-65
2022/12/15 11:17:07;;;;;;;15.97;9.17;;;;;;;-142.75;100.00;77637.34;4982282;28;20873;-65
2022/12/15 11:19:52;;;;;;;14.02;8.50;;;;;;;-142.75;100.00;77613.72;4996669;28;20028;-65
2022/12/15 11:22:27;;;;;;;17.53;9.07;;;;;;;-142.75;100.00;77641.28;4992208;28;20060;-65
2022/12/15 11:24:58;;;;;;;20.70;10.83;;;;;;;-142.75;100.00;77542.84;4987194;28;20083;-65
2022/12/15 11:27:34;;;;;;;21.97;11.53;;;;;;;-142.75;100.00;77527.09;4982793;28;20016;-65
2022/12/15 11:30:18;;;;;;;20.25;10.85;;;;;;;-142.75;100.00;77517.25;4991519;28;20017;-65
2022/12/15 11:32:47;;;;;;;18.70;10.77;;;;;;;-142.75;100.00;77477.88;5002144;28;20037;-65
2022/12/15 11:35:17;;;;;;;22.00;11.80;;;;;;;-142.75;100.00;77507.41;4989260;28;20021;-66
2022/12/15 11:37:45;;;;;;;17.87;10.83;;;;;;;-142.75;100.00;77440.44;4988610;28;20596;-64
2022/12/15 11:40:23;;;;;;;23.47;11.23;;;;;;;-142.75;100.00;77399.09;4998556;28;20024;-65
2022/12/15 11:43:10;;;;;;;21.80;11.00;;;;;;;-142.75;100.00;77330.19;4983432;28;20643;-65
2022/12/15 11:45:57;;;;;;;22.13;10.67;;;;;;;-142.75;100.00;77290.81;4982419;28;20545;-65
2022/12/15 11:48:58;;;;;;;23.67;9.95;;;;;;;-142.75;100.00;77294.75;4992926;28;20596;-66
2022/12/15 11:52:10;;;;;;;17.87;9.20;;;;;;;-142.75;100.00;77263.25;4983029;28;20029;-65
2022/12/15 11:54:59;;;;;;;22.33;9.90;;;;;;;-142.75;100.00;77284.91;4964296;28;20176;-66
2022/12/15 11:58:05;;;;;;;18.77;8.33;;;;;;;-142.75;100.00;77302.63;4985944;28;20561;-65
2022/12/15 12:00:41;;;;;;;17.67;8.90;;;;;;;-142.75;100.00;77308.53;4947668;28;20067;-65
2022/12/15 12:03:38;;;;;;;16.97;9.23;;;;;;;-142.75;100.00;77231.75;4941725;28;20039;-66
2022/12/15 12:06:09;;;;;;;17.27;9.67;;;;;;;-142.75;100.00;77206.16;4980951;28;20619;-65
2022/12/15 12:08:49;;;;;;;16.98;8.75;;;;;;;-142.75;100.00;77188.44;4996355;28;20068;-66
2022/12/15 12:11:19;;;;;;;13.40;7.57;;;;;;;-142.75;100.00;77247.50;4980127;28;20106;-65
2022/12/15 12:14:22;;;;;;;16.77;8.52;;;;;;;-142.75;100.00;77322.31;4988792;28;20136;-65
2022/12/15 12:17:14;;;;;;;14.33;8.27;;;;;;;-142.75;100.00;77379.41;4993370;28;20600;-65
2022/12/15 12:19:53;;;;;;;15.57;7.73;;;;;;;-142.75;100.00;77424.69;4993555;28;20594;-65
2022/12/15 12:22:36;;;;;;;18.87;8.30;;;;;;;-142.75;100.00;77450.28;4990731;28;20025;-65
2022/12/15 12:25:04;;;;;;;14.37;8.03;;;;;;;-142.75;100.00;77373.50;4994927;28;20029;-65
2022/12/15 12:27:53;;;;;;;15.43;8.67;;;;;;;-142.75;100.00;77320.34;4989939;28;20557;-65
2022/12/15 12:30:22;;;;;;;13.67;7.40;;;;;;;-142.75;100.00;77259.31;4996222;28;20046;-65
2022/12/15 12:32:54;;;;;;;14.63;7.20;;;;;;;-142.75;100.00;77235.69;5003531;28;20505;-65
2022/12/15 12:35:36;;;;;;;11.47;6.17;;;;;;;-142.75;100.00;77170.72;4995822;28;20864;-65
2022/12/15 12:38:08;;;;;;;14.30;6.50;;;;;;;-142.75;100.00;77151.03;4994033;28;20024;-66
2022/12/15 12:40:37;;;;;;;11.02;6.50;;;;;;;-142.75;100.00;77129.38;4985702;28;20136;-66
2022/12/15 12:43:03;;;;;;;15.15;6.53;;;;;;;-142.75;100.00;77084.09;4988469;28;20025;-66
2022/12/15 12:45:33;;;;;;;;;;;;;;;-142.75;100.00;77054.56;4998655;28;20020;-66
2022/12/15 12:48:06;;;;;;;11.93;5.50;;;;;;;-142.75;100.00;77007.31;4986460;28;19916;-65
2022/12/15 12:50:33;;;;;;;12.48;6.10;;;;;;;-142.75;98.52;76987.63;4988405;28;20554;-65
2022/12/15 12:53:02;;;;;;;13.18;5.95;;;;;;;-142.75;99.24;76971.88;4995759;28;20110;-66
2022/12/15 12:55:34;;;;;;;9.10;5.22;;;;;;;-142.75;97.67;76954.16;5002605;28;20029;-66
2022/12/15 12:57:59;;;;;;;10.43;5.25;;;;;;;-142.75;96.86;76977.78;4990573;28;20063;-67
2022/12/15 13:00:30;;;;;;;10.15;5.53;;;;;;;-142.75;95.49;77027.00;4992349;28;20360;-66
2022/12/15 13:03:12;;;;;;;13.32;6.57;;;;;;;-142.75;96.91;77007.31;4995643;28;20139;-66
2022/12/15 13:05:39;;;;;;;16.17;7.15;;;;;;;-142.75;97.90;76967.94;4985558;28;20029;-66
2022/12/15 13:08:04;;;;;;;13.20;7.43;;;;;;;-142.75;95.16;77013.22;4995213;28;20043;-66
2022/12/15 13:10:41;;;;;;;17.15;8.68;;;;;;;-142.75;99.18;77111.66;4990598;28;20345;-66
2022/12/15 13:13:25;;;;;;;;;;;;;;;-142.75;100.00;77097.88;4994745;28;20025;-66
2022/12/15 13:16:16;;;;;;;14.68;7.25;;;;;;;-142.75;100.00;77086.06;4994277;28;20479;-65
2022/12/15 13:19:03;;;;;;;14.68;8.15;;;;;;;-142.75;100.00;77070.31;4990545;28;20575;-68
2022/12/15 13:21:40;;;;;;;;;;;;;;;-142.75;100.00;77101.81;4996802;28;20522;-66
2022/12/15 13:24:31;;;;;;;11.23;8.02;;;;;;;-142.75;100.00;77174.66;4980242;28;19920;-66
2022/12/15 13:27:04;;;;;;;10.35;6.40;;;;;;;-142.75;100.00;77284.91;4990417;28;20017;-66
2022/12/15 13:29:30;;;;;;;12.40;6.40;;;;;;;-142.75;100.00;77271.13;4986755;28;20028;-65
2022/12/15 13:31:55;;;;;;;10.25;6.45;;;;;;;-142.75;100.00;77336.09;4989679;28;20241;-65
2022/12/15 13:34:23;;;;;;;11.20;6.28;;;;;;;-142.75;100.00;77351.84;4991984;28;20032;-65
2022/12/15 13:36:51;;;;;;;11.00;4.97;;;;;;;-142.75;100.00;77336.09;4986729;28;20098;-65
2022/12/15 13:39:17;;;;;;;9.37;4.97;;;;;;;-142.75;100.00;77367.59;4995032;28;20024;-65
2022/12/15 13:41:45;;;;;;;13.10;5.85;;;;;;;-142.75;100.00;77385.31;4991951;28;20515;-65
2022/12/15 13:44:17;;;;;;;15.00;5.93;;;;;;;-142.75;100.00;77373.50;4992584;28;20642;-65
2022/12/15 13:46:45;;;;;;;12.43;6.30;;;;;;;-142.75;100.00;77385.31;4991854;28;20636;-65